Time;durP1;ratioP1;P1;durP2;ratioP2;P2;SDS_P1;SDS_P2;PMS_P1;PMS_P2;Temp;Humidity;BMP_temperature;BMP_pressure;BME280_temperature;BME280_humidity;BME280_pressure;Samples;Min_cycle;Max_cycle;Signal;HPM_P1;HPM_P2
2021/03/09 00:00:46;;;;;;;11.68;6.60;;;;;;;;;;5072579;28;20060;-18
2021/03/09 00:03:12;;;;;;;16.48;8.95;;;;;;;;;;5072558;28;20071;-18
2021/03/09 00:05:37;;;;;;;13.75;8.05;;;;;;;;;;5072364;28;20029;-19
2021/03/09 00:08:03;;;;;;;15.68;9.73;;;;;;;;;;5071160;28;20032;-19
2021/03/09 00:10:28;;;;;;;21.90;10.77;;;;;;;;;;5071968;28;20071;-19
2021/03/09 00:12:53;;;;;;;13.32;8.82;;;;;;;;;;5072668;28;20502;-19
2021/03/09 00:15:19;;;;;;;14.80;8.82;;;;;;;;;;5072504;28;20025;-19
2021/03/09 00:17:44;;;;;;;16.00;12.85;;;;;;;;;;5072233;28;20111;-19
2021/03/09 00:20:10;;;;;;;19.30;11.25;;;;;;;;;;5072565;28;20098;-19
2021/03/09 00:22:35;;;;;;;13.82;9.52;;;;;;;;;;5072111;28;20082;-19
2021/03/09 00:25:01;;;;;;;16.10;9.00;;;;;;;;;;5070884;28;20036;-19
2021/03/09 00:27:26;;;;;;;16.80;7.55;;;;;;;;;;5072391;28;20016;-19
2021/03/09 00:29:52;;;;;;;5.95;3.75;;;;;;;;;;5072200;28;20028;-18
2021/03/09 00:32:17;;;;;;;10.10;5.60;;;;;;;;;;5072250;28;20021;-18
2021/03/09 00:34:42;;;;;;;19.33;12.13;;;;;;;;;;5072186;28;20119;-18
2021/03/09 00:37:08;;;;;;;16.42;11.50;;;;;;;;;;5072210;28;20021;-21
2021/03/09 00:39:33;;;;;;;15.25;8.23;;;;;;;;;;5072438;28;20074;-19
2021/03/09 00:41:58;;;;;;;14.95;8.82;;;;;;;;;;5071951;28;20430;-19
2021/03/09 00:44:24;;;;;;;11.30;6.28;;;;;;;;;;5072148;28;20115;-20
2021/03/09 00:46:49;;;;;;;12.23;6.28;;;;;;;;;;5072027;28;20016;-19
2021/03/09 00:49:15;;;;;;;9.93;6.03;;;;;;;;;;5072361;28;20488;-19
2021/03/09 00:51:40;;;;;;;15.18;8.52;;;;;;;;;;5072105;28;20012;-19
2021/03/09 00:54:06;;;;;;;2.45;1.10;;;;;;;;;;5070696;28;20085;-18
2021/03/09 00:56:31;;;;;;;14.25;9.25;;;;;;;;;;5072042;28;20032;-19
2021/03/09 00:58:56;;;;;;;17.15;8.65;;;;;;;;;;5072004;28;20784;-19
2021/03/09 01:01:22;;;;;;;14.95;9.18;;;;;;;;;;5072148;28;20021;-26
2021/03/09 01:03:47;;;;;;;21.63;12.52;;;;;;;;;;5072146;28;20041;-19
2021/03/09 01:06:12;;;;;;;14.98;10.80;;;;;;;;;;5072268;28;20043;-19
2021/03/09 01:08:38;;;;;;;16.65;10.95;;;;;;;;;;5070357;28;20560;-19
2021/03/09 01:11:03;;;;;;;14.05;7.95;;;;;;;;;;5071957;28;20407;-19
2021/03/09 01:13:28;;;;;;;14.30;9.20;;;;;;;;;;5070572;28;20123;-19
2021/03/09 01:15:54;;;;;;;13.77;10.02;;;;;;;;;;5070490;28;20048;-20
2021/03/09 01:18:19;;;;;;;12.80;8.25;;;;;;;;;;5071862;28;20047;-19
2021/03/09 01:20:45;;;;;;;17.58;10.35;;;;;;;;;;5072150;28;20017;-19
2021/03/09 01:23:11;;;;;;;8.15;4.80;;;;;;;;;;5075557;28;20401;-19
2021/03/09 01:25:36;;;;;;;15.20;8.00;;;;;;;;;;5074163;28;20032;-19
2021/03/09 01:28:02;;;;;;;12.10;6.10;;;;;;;;;;5074033;28;20060;-19
2021/03/09 01:30:27;;;;;;;11.13;7.05;;;;;;;;;;5075250;28;20012;-19
2021/03/09 01:32:52;;;;;;;11.93;7.18;;;;;;;;;;5074039;28;20025;-19
2021/03/09 01:35:18;;;;;;;6.05;3.53;;;;;;;;;;5075456;28;20021;-19
2021/03/09 01:37:43;;;;;;;15.30;9.63;;;;;;;;;;5075281;28;20024;-20
2021/03/09 01:40:09;;;;;;;13.45;8.98;;;;;;;;;;5075511;28;20091;-19
2021/03/09 01:42:35;;;;;;;5.78;3.50;;;;;;;;;;5075500;28;20059;-19
2021/03/09 01:45:02;;;;;;;12.32;7.03;;;;;;;;;;5074997;28;20452;-19
2021/03/09 01:47:30;;;;;;;14.55;9.38;;;;;;;;;;5075229;28;20055;-18
2021/03/09 01:49:55;;;;;;;11.75;7.22;;;;;;;;;;5075061;28;20017;-19
2021/03/09 01:52:21;;;;;;;15.02;8.45;;;;;;;;;;5057378;28;20099;-19
2021/03/09 01:54:46;;;;;;;12.30;7.68;;;;;;;;;;5075265;28;20082;-19
2021/03/09 01:57:11;;;;;;;13.57;8.93;;;;;;;;;;5074872;28;20102;-19
2021/03/09 01:59:37;;;;;;;12.73;8.05;;;;;;;;;;5074917;28;20031;-19
2021/03/09 02:02:03;;;;;;;15.98;10.07;;;;;;;;;;5074774;28;20454;-19
2021/03/09 02:04:29;;;;;;;12.50;6.70;;;;;;;;;;5074793;28;20013;-19
2021/03/09 02:06:54;;;;;;;14.63;8.82;;;;;;;;;;5073794;28;20479;-19
2021/03/09 02:09:20;;;;;;;9.73;5.63;;;;;;;;;;5074699;28;20516;-19
2021/03/09 02:11:52;;;;;;;17.95;8.02;;;;;;;;;;5073571;28;20025;-19
2021/03/09 02:14:27;;;;;;;17.10;10.02;;;;;;;;;;5074733;28;20100;-19
2021/03/09 02:16:58;;;;;;;14.75;7.93;;;;;;;;;;5074610;28;20036;-19
2021/03/09 02:19:42;;;;;;;12.77;7.40;;;;;;;;;;5074465;28;20024;-19
2021/03/09 02:22:23;;;;;;;13.15;8.00;;;;;;;;;;5074328;28;20048;-19
2021/03/09 02:25:07;;;;;;;11.07;7.72;;;;;;;;;;5074580;28;20028;-19
2021/03/09 02:27:45;;;;;;;10.70;6.30;;;;;;;;;;5074420;28;20016;-20
2021/03/09 02:30:13;;;;;;;9.77;5.72;;;;;;;;;;5074369;28;20036;-19
2021/03/09 02:32:57;;;;;;;10.77;5.35;;;;;;;;;;5073680;28;20027;-18
2021/03/09 02:35:24;;;;;;;10.60;6.50;;;;;;;;;;5074591;28;20060;-19
2021/03/09 02:37:50;;;;;;;12.10;7.97;;;;;;;;;;5074145;28;20022;-19
2021/03/09 02:40:16;;;;;;;12.90;7.63;;;;;;;;;;5074056;28;20107;-19
2021/03/09 02:42:44;;;;;;;14.05;7.63;;;;;;;;;;5074068;28;20027;-19
2021/03/09 02:45:11;;;;;;;13.88;6.85;;;;;;;;;;5074337;28;20111;-19
2021/03/09 02:47:36;;;;;;;10.50;5.10;;;;;;;;;;5073979;28;20012;-19
2021/03/09 02:50:03;;;;;;;11.07;7.03;;;;;;;;;;5074121;28;20086;-19
2021/03/09 02:52:30;;;;;;;13.30;7.82;;;;;;;;;;5073921;28;20017;-19
2021/03/09 02:54:56;;;;;;;12.60;7.85;;;;;;;;;;5073866;28;20040;-19
2021/03/09 02:57:22;;;;;;;8.70;5.63;;;;;;;;;;5073829;28;20036;-19
2021/03/09 02:59:48;;;;;;;14.40;8.43;;;;;;;;;;5072387;28;20032;-19
2021/03/09 03:02:15;;;;;;;8.88;6.25;;;;;;;;;;5073599;28;20457;-19
2021/03/09 03:04:43;;;;;;;11.07;7.32;;;;;;;;;;5073931;28;20119;-19
2021/03/09 03:07:09;;;;;;;12.57;7.28;;;;;;;;;;5073573;28;20024;-19
2021/03/09 03:09:36;;;;;;;9.48;6.57;;;;;;;;;;5073447;28;20032;-19
2021/03/09 03:12:01;;;;;;;14.27;7.72;;;;;;;;;;5073497;28;20025;-19
2021/03/09 03:14:27;;;;;;;9.93;6.15;;;;;;;;;;5072273;28;20108;-19
2021/03/09 03:16:53;;;;;;;15.32;8.20;;;;;;;;;;5073358;28;20017;-20
2021/03/09 03:19:19;;;;;;;10.13;6.95;;;;;;;;;;5073333;28;20024;-19
2021/03/09 03:21:45;;;;;;;3.92;2.55;;;;;;;;;;5071814;28;20044;-19
2021/03/09 03:24:12;;;;;;;12.00;8.75;;;;;;;;;;5073127;28;20044;-19
2021/03/09 03:26:39;;;;;;;11.30;6.28;;;;;;;;;;5072026;28;20451;-19
2021/03/09 03:29:05;;;;;;;9.35;4.80;;;;;;;;;;5071748;28;20075;-19
2021/03/09 03:31:31;;;;;;;11.35;8.60;;;;;;;;;;5073305;28;20055;-19
2021/03/09 03:33:56;;;;;;;8.65;5.43;;;;;;;;;;5072986;28;20442;-19
2021/03/09 03:36:22;;;;;;;10.52;6.63;;;;;;;;;;5073381;28;20016;-19
2021/03/09 03:38:47;;;;;;;8.45;5.70;;;;;;;;;;5072876;28;20023;-18
2021/03/09 03:41:13;;;;;;;12.70;6.45;;;;;;;;;;5073015;28;20020;-19
2021/03/09 03:43:38;;;;;;;2.97;2.38;;;;;;;;;;5072123;28;20033;-19
2021/03/09 03:46:04;;;;;;;12.13;6.75;;;;;;;;;;5072990;28;20082;-19
2021/03/09 03:48:31;;;;;;;12.57;5.40;;;;;;;;;;5071508;28;20064;-19
2021/03/09 03:50:57;;;;;;;7.93;4.85;;;;;;;;;;5072995;28;20413;-19
2021/03/09 03:53:32;;;;;;;9.55;5.93;;;;;;;;;;5072690;28;20032;-19
2021/03/09 03:56:16;;;;;;;12.13;6.00;;;;;;;;;;5072616;28;20110;-18
2021/03/09 03:58:50;;;;;;;10.15;6.47;;;;;;;;;;5072176;28;20056;-19
2021/03/09 04:01:18;;;;;;;9.30;5.65;;;;;;;;;;5072592;28;20048;-18
2021/03/09 04:03:44;;;;;;;5.22;3.25;;;;;;;;;;5071258;28;20420;-19
2021/03/09 04:06:10;;;;;;;7.75;6.07;;;;;;;;;;5071131;28;20059;-19
2021/03/09 04:08:39;;;;;;;4.95;3.65;;;;;;;;;;5051095;28;20051;-19
2021/03/09 04:11:05;;;;;;;11.30;7.20;;;;;;;;;;5052029;28;20033;-19
2021/03/09 04:13:32;;;;;;;2.00;1.45;;;;;;;;;;5052563;28;20419;-19
2021/03/09 04:15:57;;;;;;;10.68;5.63;;;;;;;;;;5052433;28;20029;-19
2021/03/09 04:18:25;;;;;;;5.88;4.40;;;;;;;;;;5052672;28;20036;-19
2021/03/09 04:20:52;;;;;;;1.13;1.02;;;;;;;;;;5051960;28;20021;-19
2021/03/09 04:23:18;;;;;;;1.00;0.90;;;;;;;;;;5052364;28;20033;-19
2021/03/09 04:25:44;;;;;;;8.40;5.40;;;;;;;;;;5052197;28;20025;-19
2021/03/09 04:28:10;;;;;;;8.13;3.78;;;;;;;;;;5050849;28;20086;-19
2021/03/09 04:30:35;;;;;;;5.25;3.05;;;;;;;;;;5052585;28;20487;-18
2021/03/09 04:33:01;;;;;;;2.15;1.98;;;;;;;;;;5052385;28;20048;-19
2021/03/09 04:35:27;;;;;;;8.15;4.78;;;;;;;;;;5052495;28;20025;-19
2021/03/09 04:37:53;;;;;;;5.47;3.30;;;;;;;;;;5052059;28;20017;-18
2021/03/09 04:40:19;;;;;;;2.90;2.13;;;;;;;;;;5052192;28;20033;-18
2021/03/09 04:42:44;;;;;;;1.75;1.23;;;;;;;;;;5052249;28;20044;-20
2021/03/09 04:45:10;;;;;;;7.03;4.90;;;;;;;;;;5050902;28;20521;-18
2021/03/09 04:47:36;;;;;;;6.18;4.05;;;;;;;;;;5052451;28;20353;-19
2021/03/09 04:50:01;;;;;;;6.57;4.82;;;;;;;;;;5051953;28;20464;-19
2021/03/09 04:52:27;;;;;;;0.88;0.75;;;;;;;;;;5052371;28;20028;-19
2021/03/09 04:54:53;;;;;;;6.78;4.20;;;;;;;;;;5052913;28;20033;-19
2021/03/09 04:57:19;;;;;;;3.78;2.67;;;;;;;;;;5055957;28;20082;-19
2021/03/09 04:59:45;;;;;;;5.35;3.00;;;;;;;;;;5055986;28;20025;-19
2021/03/09 05:02:10;;;;;;;3.95;2.88;;;;;;;;;;5056266;28;20416;-19
2021/03/09 05:04:35;;;;;;;6.30;4.20;;;;;;;;;;5055905;28;20032;-18
2021/03/09 05:07:01;;;;;;;5.65;4.72;;;;;;;;;;5056206;28;20055;-19
2021/03/09 05:09:32;;;;;;;6.82;3.42;;;;;;;;;;5055731;28;20089;-19
2021/03/09 05:11:58;;;;;;;7.47;4.45;;;;;;;;;;5055773;28;20476;-18
2021/03/09 05:14:23;;;;;;;7.65;4.93;;;;;;;;;;5055874;28;20017;-19
2021/03/09 05:16:48;;;;;;;6.43;4.43;;;;;;;;;;5055872;28;20383;-19
2021/03/09 05:19:14;;;;;;;8.40;5.22;;;;;;;;;;5054411;28;20475;-18
2021/03/09 05:21:39;;;;;;;9.38;4.75;;;;;;;;;;5055572;28;20377;-18
2021/03/09 05:24:05;;;;;;;8.02;4.15;;;;;;;;;;5055677;28;20484;-19
2021/03/09 05:26:30;;;;;;;5.93;3.90;;;;;;;;;;5055619;28;20017;-18
2021/03/09 05:28:56;;;;;;;7.80;3.83;;;;;;;;;;5055356;28;20087;-18
2021/03/09 05:31:22;;;;;;;11.32;2.33;;;;;;;;;;5054212;28;20032;-19
2021/03/09 05:33:47;;;;;;;7.32;3.55;;;;;;;;;;5054078;28;20021;-19
2021/03/09 05:36:13;;;;;;;1.52;0.93;;;;;;;;;;5055513;28;20021;-19
2021/03/09 05:38:38;;;;;;;6.28;4.32;;;;;;;;;;5055545;28;20507;-19
2021/03/09 05:41:03;;;;;;;7.78;5.40;;;;;;;;;;5055429;28;20497;-19
2021/03/09 05:43:33;;;;;;;1.42;1.27;;;;;;;;;;5037279;28;20037;-19
2021/03/09 05:45:58;;;;;;;7.38;3.67;;;;;;;;;;5053705;28;20448;-19
2021/03/09 05:48:23;;;;;;;5.80;3.90;;;;;;;;;;5055405;28;20052;-19
2021/03/09 05:50:49;;;;;;;7.30;4.75;;;;;;;;;;5055120;28;20037;-19
2021/03/09 05:53:14;;;;;;;7.47;4.45;;;;;;;;;;5055015;28;20066;-19
2021/03/09 05:55:40;;;;;;;0.65;0.65;;;;;;;;;;5055289;28;20108;-19
2021/03/09 05:58:05;;;;;;;7.22;4.72;;;;;;;;;;5054871;28;20457;-19
2021/03/09 06:00:31;;;;;;;3.50;2.45;;;;;;;;;;5055102;28;20044;-19
2021/03/09 06:02:56;;;;;;;7.28;4.55;;;;;;;;;;5053811;28;20025;-18
2021/03/09 06:05:21;;;;;;;5.07;4.03;;;;;;;;;;5054849;28;20024;-19
2021/03/09 06:07:47;;;;;;;4.20;2.80;;;;;;;;;;5053814;28;20090;-19
2021/03/09 06:10:20;;;;;;;5.15;3.80;;;;;;;;;;5054748;28;20029;-19
2021/03/09 06:12:45;;;;;;;6.55;4.97;;;;;;;;;;5054887;28;20033;-19
2021/03/09 06:15:10;;;;;;;8.15;4.43;;;;;;;;;;5054906;28;20028;-19
2021/03/09 06:17:39;;;;;;;7.55;4.53;;;;;;;;;;5054571;28;20037;-19
2021/03/09 06:20:17;;;;;;;7.65;3.95;;;;;;;;;;5054460;28;20092;-19
2021/03/09 06:22:47;;;;;;;9.27;4.68;;;;;;;;;;5054220;28;20128;-19
2021/03/09 06:25:16;;;;;;;7.28;5.18;;;;;;;;;;5054531;28;20025;-19
2021/03/09 06:27:42;;;;;;;1.98;1.50;;;;;;;;;;5054378;28;20025;-19
2021/03/09 06:30:09;;;;;;;6.75;3.58;;;;;;;;;;5054402;28;20179;-19
2021/03/09 06:32:38;;;;;;;5.70;3.10;;;;;;;;;;5054409;28;20589;-19
2021/03/09 06:35:04;;;;;;;8.55;3.10;;;;;;;;;;5054112;28;20025;-19
2021/03/09 06:37:29;;;;;;;7.63;5.30;;;;;;;;;;5054570;28;20033;-18
2021/03/09 06:39:56;;;;;;;9.75;5.60;;;;;;;;;;5054282;28;20577;-19
2021/03/09 06:42:23;;;;;;;2.95;1.98;;;;;;;;;;5054121;28;20464;-19
2021/03/09 06:44:53;;;;;;;9.15;4.40;;;;;;;;;;5054034;28;20017;-19
2021/03/09 06:47:29;;;;;;;8.15;4.95;;;;;;;;;;5054025;28;20087;-19
2021/03/09 06:49:55;;;;;;;7.78;4.18;;;;;;;;;;5053811;28;20044;-18
2021/03/09 06:52:21;;;;;;;6.82;3.63;;;;;;;;;;5054291;28;20017;-19
2021/03/09 06:54:50;;;;;;;6.53;3.40;;;;;;;;;;5053931;28;20025;-18
2021/03/09 06:57:16;;;;;;;0.60;0.43;;;;;;;;;;5053961;28;20046;-18
2021/03/09 06:59:42;;;;;;;1.83;1.38;;;;;;;;;;5053847;28;20380;-19
2021/03/09 07:02:07;;;;;;;6.80;4.95;;;;;;;;;;5053781;28;20013;-19
2021/03/09 07:04:33;;;;;;;6.68;4.20;;;;;;;;;;5052274;28;20045;-19
2021/03/09 07:06:59;;;;;;;9.32;3.38;;;;;;;;;;5053664;28;20108;-19
2021/03/09 07:09:24;;;;;;;8.02;4.35;;;;;;;;;;5053504;28;20094;-19
2021/03/09 07:11:50;;;;;;;4.32;2.83;;;;;;;;;;5053500;28;20028;-19
2021/03/09 07:14:16;;;;;;;4.72;3.30;;;;;;;;;;5053563;28;20021;-19
2021/03/09 07:16:46;;;;;;;7.32;2.72;;;;;;;;;;5053515;28;20103;-18
2021/03/09 07:19:12;;;;;;;5.10;3.33;;;;;;;;;;5053351;28;20388;-19
2021/03/09 07:21:38;;;;;;;7.82;4.97;;;;;;;;;;5053202;28;20098;-19
2021/03/09 07:24:04;;;;;;;4.55;2.83;;;;;;;;;;5053642;28;20110;-19
2021/03/09 07:26:30;;;;;;;1.35;1.17;;;;;;;;;;5053571;28;20041;-19
2021/03/09 07:28:58;;;;;;;3.72;1.55;;;;;;;;;;5053024;28;20472;-19
2021/03/09 07:31:24;;;;;;;5.00;3.47;;;;;;;;;;5053262;28;20025;-19
2021/03/09 07:33:50;;;;;;;5.35;2.55;;;;;;;;;;5052963;28;20086;-18
2021/03/09 07:36:17;;;;;;;5.40;2.63;;;;;;;;;;5053424;28;20032;-20
2021/03/09 07:38:43;;;;;;;7.10;4.45;;;;;;;;;;5053027;28;20033;-19
2021/03/09 07:41:09;;;;;;;6.15;2.88;;;;;;;;;;5052964;28;20029;-19
2021/03/09 07:43:34;;;;;;;4.85;3.08;;;;;;;;;;5085252;28;20463;-19
2021/03/09 07:46:00;;;;;;;8.07;2.65;;;;;;;;;;5052726;28;20100;-19
2021/03/09 07:48:26;;;;;;;5.97;2.97;;;;;;;;;;5052913;28;20061;-19
2021/03/09 07:50:52;;;;;;;6.60;3.17;;;;;;;;;;5052856;28;20055;-19
2021/03/09 07:53:18;;;;;;;8.43;4.90;;;;;;;;;;5052767;28;20029;-19
2021/03/09 07:55:45;;;;;;;4.65;3.22;;;;;;;;;;5052676;28;20021;-19
2021/03/09 07:58:23;;;;;;;4.47;2.40;;;;;;;;;;5052668;28;20025;-19
2021/03/09 08:00:58;;;;;;;6.30;3.95;;;;;;;;;;5034728;28;20033;-18
2021/03/09 08:03:27;;;;;;;9.50;4.43;;;;;;;;;;5052800;28;20037;-25
2021/03/09 08:05:52;;;;;;;3.47;2.00;;;;;;;;;;5052548;28;20021;-18
2021/03/09 08:08:37;;;;;;;4.93;3.80;;;;;;;;;;5052487;28;20090;-18
2021/03/09 08:11:03;;;;;;;6.25;3.63;;;;;;;;;;5052689;28;20361;-19
2021/03/09 08:13:29;;;;;;;0.75;0.75;;;;;;;;;;5051275;28;20013;-19
2021/03/09 08:16:13;;;;;;;4.85;2.67;;;;;;;;;;5052650;28;20102;-19
2021/03/09 08:18:42;;;;;;;7.47;4.00;;;;;;;;;;5052305;28;20035;-19
2021/03/09 08:21:07;;;;;;;6.68;3.70;;;;;;;;;;5034248;28;20041;-19
2021/03/09 08:23:33;;;;;;;2.45;1.75;;;;;;;;;;5052571;28;20124;-19
2021/03/09 08:25:59;;;;;;;7.20;3.50;;;;;;;;;;5052262;28;20117;-19
2021/03/09 08:28:32;;;;;;;3.40;0.55;;;;;;;;;;5052320;28;20480;-19
2021/03/09 08:31:09;;;;;;;2.25;1.48;;;;;;;;;;5051705;28;20407;-18
2021/03/09 08:33:45;;;;;;;4.43;2.60;;;;;;;;;;5050944;28;20055;-18
2021/03/09 08:36:36;;;;;;;7.00;4.05;;;;;;;;;;5052234;28;20032;-19
2021/03/09 08:41:41;;;;;;;6.28;4.47;;;;;;;;;;5052240;28;20013;-18
2021/03/09 08:44:26;;;;;;;2.08;0.80;;;;;;;;;;5049814;28;20037;-18
2021/03/09 08:46:57;;;;;;;7.78;5.90;;;;;;;;;;4729745;28;10000639;-18
2021/03/09 08:49:36;;;;;;;9.48;4.82;;;;;;;;;;5049247;28;20036;-20
2021/03/09 08:52:06;;;;;;;7.05;4.38;;;;;;;;;;5048860;28;20040;-21
2021/03/09 08:54:35;;;;;;;4.95;2.83;;;;;;;;;;5049029;28;20067;-20
2021/03/09 08:57:09;;;;;;;4.90;3.22;;;;;;;;;;5048468;28;20029;-20
2021/03/09 08:59:37;;;;;;;6.47;2.20;;;;;;;;;;5048575;28;20033;-18
2021/03/09 09:02:22;;;;;;;7.55;5.97;;;;;;;;;;5048750;28;20021;-18
2021/03/09 09:04:54;;;;;;;10.27;5.72;;;;;;;;;;5059231;28;20135;-18
2021/03/09 09:07:20;;;;;;;5.13;3.70;;;;;;;;;;5068948;28;20032;-19
2021/03/09 09:09:45;;;;;;;4.65;2.63;;;;;;;;;;5068417;28;20040;-19
2021/03/09 09:12:20;;;;;;;6.45;3.33;;;;;;;;;;5068669;28;20044;-19
2021/03/09 09:14:46;;;;;;;7.50;2.83;;;;;;;;;;5068690;28;20074;-18
2021/03/09 09:17:12;;;;;;;7.03;3.38;;;;;;;;;;5067159;28;20395;-19
2021/03/09 09:19:37;;;;;;;5.32;2.90;;;;;;;;;;5068064;28;20136;-19
2021/03/09 09:22:03;;;;;;;8.57;4.57;;;;;;;;;;5066315;28;20049;-19
2021/03/09 09:24:29;;;;;;;6.03;3.42;;;;;;;;;;5067668;28;20055;-19
2021/03/09 09:27:02;;;;;;;8.63;5.28;;;;;;;;;;5066696;28;20064;-19
2021/03/09 09:29:27;;;;;;;;;;;;;;;;;;5067328;28;20082;-18
2021/03/09 09:32:00;;;;;;;4.85;3.03;;;;;;;;;;5068149;28;19908;-19
2021/03/09 09:34:36;;;;;;;2.63;1.60;;;;;;;;;;5068074;28;20024;-18
2021/03/09 09:37:15;;;;;;;3.85;1.90;;;;;;;;;;5066754;28;20044;-18
2021/03/09 09:39:41;;;;;;;8.38;5.65;;;;;;;;;;5067274;28;20032;-18
2021/03/09 09:42:18;;;;;;;6.60;4.45;;;;;;;;;;5067408;28;20467;-19
2021/03/09 09:44:44;;;;;;;5.80;3.38;;;;;;;;;;5072187;28;20136;-19
2021/03/09 09:47:10;;;;;;;5.20;3.35;;;;;;;;;;5092271;28;20610;-19
2021/03/09 09:49:36;;;;;;;10.30;3.83;;;;;;;;;;5092079;28;20089;-19
2021/03/09 09:52:09;;;;;;;8.68;5.35;;;;;;;;;;5092323;28;20089;-19
2021/03/09 09:54:35;;;;;;;6.47;5.10;;;;;;;;;;5092043;28;20059;-19
2021/03/09 09:57:10;;;;;;;7.60;5.93;;;;;;;;;;5091563;28;20054;-19
2021/03/09 09:59:35;;;;;;;8.88;5.50;;;;;;;;;;5092042;28;20040;-19
2021/03/09 10:02:12;;;;;;;1.75;1.30;;;;;;;;;;5091863;28;20050;-19
2021/03/09 10:04:38;;;;;;;7.50;4.40;;;;;;;;;;5091660;28;20086;-18
2021/03/09 10:07:12;;;;;;;1.77;1.45;;;;;;;;;;5091730;28;20486;-18
2021/03/09 10:09:37;;;;;;;5.00;1.85;;;;;;;;;;5091073;28;20478;-18
2021/03/09 10:12:04;;;;;;;6.90;2.80;;;;;;;;;;5091531;28;20022;-18
2021/03/09 10:14:34;;;;;;;6.93;2.88;;;;;;;;;;5091366;28;20463;-19
2021/03/09 10:16:59;;;;;;;8.55;5.55;;;;;;;;;;5091739;28;20043;-19
2021/03/09 10:19:34;;;;;;;7.85;3.80;;;;;;;;;;5090643;28;20394;-19
2021/03/09 10:21:59;;;;;;;4.55;3.22;;;;;;;;;;5090917;28;20040;-19
2021/03/09 10:24:30;;;;;;;1.67;1.05;;;;;;;;;;5091309;28;20398;-18
2021/03/09 10:26:56;;;;;;;6.03;3.70;;;;;;;;;;5091478;28;20039;-19
2021/03/09 10:29:26;;;;;;;5.57;3.03;;;;;;;;;;5091332;28;20524;-18
2021/03/09 10:31:57;;;;;;;3.80;2.45;;;;;;;;;;5091423;28;20722;-18
2021/03/09 10:34:39;;;;;;;5.82;3.60;;;;;;;;;;5091168;28;20028;-18
2021/03/09 10:37:05;;;;;;;7.57;3.80;;;;;;;;;;5091152;28;20043;-19
2021/03/09 10:39:32;;;;;;;5.53;3.70;;;;;;;;;;5091262;28;20016;-19
2021/03/09 10:42:17;;;;;;;6.38;3.20;;;;;;;;;;5089527;28;20040;-19
2021/03/09 10:44:43;;;;;;;6.90;4.25;;;;;;;;;;5089880;28;20081;-19
2021/03/09 10:47:11;;;;;;;5.03;3.35;;;;;;;;;;5070622;28;20029;-19
2021/03/09 10:49:36;;;;;;;7.72;3.95;;;;;;;;;;5070787;28;20028;-19
2021/03/09 10:52:03;;;;;;;7.80;4.60;;;;;;;;;;5076344;28;20037;-19
2021/03/09 10:54:29;;;;;;;6.07;3.00;;;;;;;;;;5089079;28;20035;-19
2021/03/09 10:56:55;;;;;;;7.45;4.30;;;;;;;;;;5090280;28;20027;-24
2021/03/09 10:59:20;;;;;;;6.03;3.40;;;;;;;;;;5090717;28;20024;-19
2021/03/09 11:01:45;;;;;;;8.80;5.15;;;;;;;;;;5089178;28;20691;-19
2021/03/09 11:04:11;;;;;;;7.78;4.47;;;;;;;;;;5090703;28;20547;-19
2021/03/09 11:06:36;;;;;;;3.70;2.13;;;;;;;;;;5090514;28;20032;-19
2021/03/09 11:09:02;;;;;;;5.78;3.42;;;;;;;;;;5090265;28;20042;-18
2021/03/09 11:11:27;;;;;;;5.13;2.95;;;;;;;;;;5089193;28;20077;-19
2021/03/09 11:13:53;;;;;;;6.53;4.07;;;;;;;;;;5090265;28;20024;-19
2021/03/09 11:16:18;;;;;;;6.72;4.00;;;;;;;;;;5088716;28;20827;-18
2021/03/09 11:18:44;;;;;;;6.78;4.22;;;;;;;;;;5090133;28;20490;-19
2021/03/09 11:21:10;;;;;;;6.15;2.53;;;;;;;;;;5089663;28;20026;-19
2021/03/09 11:23:35;;;;;;;3.83;2.88;;;;;;;;;;5090065;28;20521;-19
2021/03/09 11:26:00;;;;;;;6.05;3.78;;;;;;;;;;5090339;28;20105;-19
2021/03/09 11:28:26;;;;;;;11.98;3.55;;;;;;;;;;5090535;28;20059;-19
2021/03/09 11:30:51;;;;;;;6.93;4.35;;;;;;;;;;5090451;28;20028;-19
2021/03/09 11:33:17;;;;;;;5.25;3.42;;;;;;;;;;5089928;28;20135;-18
2021/03/09 11:35:43;;;;;;;8.57;4.75;;;;;;;;;;5088555;28;20467;-19
2021/03/09 11:38:09;;;;;;;4.35;2.35;;;;;;;;;;5089818;28;20081;-19
2021/03/09 11:40:35;;;;;;;6.93;4.20;;;;;;;;;;5089853;28;20544;-19
2021/03/09 11:43:01;;;;;;;7.85;3.00;;;;;;;;;;5089767;28;20036;-19
2021/03/09 11:45:26;;;;;;;5.05;3.00;;;;;;;;;;5082975;28;20432;-19
2021/03/09 11:47:51;;;;;;;6.60;3.42;;;;;;;;;;5069494;28;20456;-19
2021/03/09 11:50:17;;;;;;;7.75;3.47;;;;;;;;;;5069736;28;20024;-18
2021/03/09 11:52:43;;;;;;;4.53;3.05;;;;;;;;;;5069512;28;20036;-19
2021/03/09 11:55:08;;;;;;;8.43;5.55;;;;;;;;;;5069084;28;20029;-18
2021/03/09 11:57:34;;;;;;;9.82;7.25;;;;;;;;;;5069263;28;20100;-20
2021/03/09 11:59:59;;;;;;;5.90;2.55;;;;;;;;;;5087675;28;20024;-18
2021/03/09 12:02:25;;;;;;;7.53;5.05;;;;;;;;;;5089696;28;20036;-19
2021/03/09 12:04:51;;;;;;;6.85;3.88;;;;;;;;;;5088680;28;20016;-18
2021/03/09 12:07:17;;;;;;;8.52;3.92;;;;;;;;;;5089532;28;20508;-17
2021/03/09 12:09:43;;;;;;;8.13;5.18;;;;;;;;;;5088967;28;20042;-18
2021/03/09 12:12:08;;;;;;;1.80;1.40;;;;;;;;;;5089558;28;20023;-18
2021/03/09 12:14:34;;;;;;;7.85;5.97;;;;;;;;;;5089299;28;20428;-18
2021/03/09 12:16:59;;;;;;;9.27;5.38;;;;;;;;;;5088873;28;20043;-18
2021/03/09 12:19:24;;;;;;;4.00;1.83;;;;;;;;;;5089498;28;20024;-17
2021/03/09 12:21:50;;;;;;;6.72;5.03;;;;;;;;;;5088490;28;20506;-18
2021/03/09 12:24:17;;;;;;;4.72;2.78;;;;;;;;;;5087625;28;20056;-17
2021/03/09 12:26:42;;;;;;;6.38;4.55;;;;;;;;;;5087439;28;20039;-17
2021/03/09 12:29:08;;;;;;;11.85;4.25;;;;;;;;;;5089240;28;20075;-18
2021/03/09 12:31:33;;;;;;;8.15;4.70;;;;;;;;;;5088777;28;20428;-19
2021/03/09 12:33:59;;;;;;;5.90;3.97;;;;;;;;;;5088619;28;20462;-18
2021/03/09 12:36:25;;;;;;;6.85;4.45;;;;;;;;;;5089150;28;20028;-19
2021/03/09 12:38:50;;;;;;;12.02;6.15;;;;;;;;;;5088877;28;20522;-19
2021/03/09 12:41:16;;;;;;;9.10;4.65;;;;;;;;;;5089118;28;20074;-18
2021/03/09 12:43:42;;;;;;;7.57;5.20;;;;;;;;;;5089122;28;20203;-18
2021/03/09 12:46:07;;;;;;;8.48;5.32;;;;;;;;;;5076329;28;20024;-18
2021/03/09 12:48:32;;;;;;;6.95;4.15;;;;;;;;;;5068946;28;20036;-18
2021/03/09 12:50:58;;;;;;;8.95;4.20;;;;;;;;;;5067371;28;20560;-18
2021/03/09 12:53:24;;;;;;;9.50;5.47;;;;;;;;;;5068811;28;20078;-21
2021/03/09 12:55:49;;;;;;;8.98;3.78;;;;;;;;;;5068490;28;20087;-18
2021/03/09 12:58:15;;;;;;;9.20;5.45;;;;;;;;;;5068402;28;20104;-18
2021/03/09 13:00:40;;;;;;;5.45;2.67;;;;;;;;;;5069106;28;20356;-18
2021/03/09 13:03:05;;;;;;;5.38;4.07;;;;;;;;;;5068916;28;20025;-18
2021/03/09 13:05:31;;;;;;;9.60;4.03;;;;;;;;;;5068725;28;20598;-18
2021/03/09 13:07:56;;;;;;;8.32;4.15;;;;;;;;;;5068388;28;20025;-18
2021/03/09 13:10:22;;;;;;;9.02;5.72;;;;;;;;;;5068355;28;20181;-18
2021/03/09 13:12:47;;;;;;;8.50;4.18;;;;;;;;;;5068473;28;20522;-18
2021/03/09 13:15:13;;;;;;;8.75;4.43;;;;;;;;;;5068714;28;20495;-18
2021/03/09 13:17:39;;;;;;;8.05;5.00;;;;;;;;;;5071771;28;20044;-18
2021/03/09 13:20:06;;;;;;;10.77;6.97;;;;;;;;;;5071345;28;20036;-18
2021/03/09 13:22:31;;;;;;;10.00;6.65;;;;;;;;;;5071870;28;20063;-18
2021/03/09 13:24:57;;;;;;;9.23;4.45;;;;;;;;;;5072236;28;20059;-18
2021/03/09 13:27:22;;;;;;;11.13;5.35;;;;;;;;;;5072546;28;20024;-19
2021/03/09 13:29:48;;;;;;;10.68;5.18;;;;;;;;;;5071933;28;20078;-19
2021/03/09 13:32:13;;;;;;;12.82;5.10;;;;;;;;;;5072075;28;20071;-18
2021/03/09 13:34:39;;;;;;;6.20;3.47;;;;;;;;;;5071794;28;20546;-18
2021/03/09 13:37:04;;;;;;;10.05;7.18;;;;;;;;;;5071983;28;20071;-18
2021/03/09 13:39:30;;;;;;;9.02;5.50;;;;;;;;;;5072128;28;20432;-18
2021/03/09 13:41:55;;;;;;;9.02;5.60;;;;;;;;;;5071701;28;20073;-18
2021/03/09 13:44:21;;;;;;;5.82;3.55;;;;;;;;;;5071736;28;20040;-19
2021/03/09 13:46:46;;;;;;;7.05;4.10;;;;;;;;;;5089196;28;20030;-18
2021/03/09 13:49:12;;;;;;;6.78;4.35;;;;;;;;;;5091931;28;20031;-18
2021/03/09 13:51:37;;;;;;;6.97;4.43;;;;;;;;;;5090585;28;20020;-18
2021/03/09 13:54:03;;;;;;;8.13;4.80;;;;;;;;;;5092105;28;20032;-18
2021/03/09 13:56:28;;;;;;;8.73;5.03;;;;;;;;;;5091631;28;20065;-18
2021/03/09 13:58:54;;;;;;;10.52;5.72;;;;;;;;;;5091570;28;20036;-18
2021/03/09 14:01:19;;;;;;;7.65;5.07;;;;;;;;;;5090564;28;20016;-18
2021/03/09 14:03:45;;;;;;;10.38;5.00;;;;;;;;;;5090511;28;20059;-18
2021/03/09 14:06:11;;;;;;;6.68;4.05;;;;;;;;;;5091447;28;20019;-19
2021/03/09 14:08:37;;;;;;;8.20;5.40;;;;;;;;;;5091620;28;20445;-19
2021/03/09 14:11:03;;;;;;;7.20;4.55;;;;;;;;;;5090614;28;20023;-19
2021/03/09 14:13:29;;;;;;;7.40;4.40;;;;;;;;;;5091643;28;20028;-19
2021/03/09 14:15:55;;;;;;;11.88;5.10;;;;;;;;;;5091687;28;20020;-19
2021/03/09 14:18:20;;;;;;;8.23;3.63;;;;;;;;;;5091782;28;20379;-19
2021/03/09 14:20:46;;;;;;;8.75;4.95;;;;;;;;;;5091638;28;20359;-18
2021/03/09 14:23:11;;;;;;;7.22;4.70;;;;;;;;;;5090990;28;20868;-19
2021/03/09 14:25:37;;;;;;;7.45;5.25;;;;;;;;;;5091288;28;20047;-19
2021/03/09 14:28:02;;;;;;;7.43;4.50;;;;;;;;;;5090675;28;20089;-19
2021/03/09 14:30:28;;;;;;;4.88;2.42;;;;;;;;;;5091594;28;20035;-18
2021/03/09 14:32:53;;;;;;;2.22;1.65;;;;;;;;;;5090813;28;20024;-22
2021/03/09 14:35:19;;;;;;;4.80;2.78;;;;;;;;;;5091133;28;20024;-19
2021/03/09 14:37:45;;;;;;;8.68;4.50;;;;;;;;;;5091214;28;20033;-19
2021/03/09 14:40:15;;;;;;;7.75;4.90;;;;;;;;;;5090392;28;20020;-19